الصفحة الرئيسية
METAR-TAF:

METAR-TAF

مطار :

مطار سبليت

سبليت, كرواتيا

دائرة عرض: 43-32N, خط طول: 016-18E, ارتفاع: 19 متر

مراقبة الطقس الحالي

تاريخ ووقت الإصدار 36 دقيقة قبل الساعة 17:00UTC
ريح 15 عقدة من الشمال الشرقي
درجة الحرارة 9°درجة مئوية
الرطوبة 29%
ضغط 1015 hPa
الرؤية 10 كم أو أكثر
الغيوم لا تقل 1500 م ولا وجود لمزنة ركامية السحاب الأسود

METAR: LDSP 011700Z 04015KT CAVOK 09/M08 Q1015 NOSIG

زمن: 19:36 (17:36 UTC)

توقعات

تاريخ ووقت الإصدار 6ساعات و 11 دقيقة قبل الساعة 11:25UTC
التوقعات صالحة من01 الساعة 12 UTC إلى 02 الساعة 12 UTC
ريح 15 عقدة من الشمال الشرقي
الرؤية 10 كم أو أكثر
الغيوم لا تقل 1500 م ولا وجود لمزنة ركامية السحاب الأسود
أصبح
من 01 الساعة 18 UTC إلى 01 الساعة 20 UTC
ريح 10 عقدة من الشمال
أصبح
من 02 الساعة 02 UTC إلى 02 الساعة 04 UTC
ريح 2 عقدةمن اتجاهات متغيرة
أصبح
من 02 الساعة 10 UTC إلى 02 الساعة 12 UTC
ريح 6 عقدة من الجنوب الغربي

TAF: LDSP 011125Z 0112/0212 05015KT CAVOK TX13/0113Z TN02/0204Z BECMG 0118/0120 35010KT BECMG 0202/0204 VRB02KT BECMG 0210/0212 23006KT

أرصاد الطقس والتوقعات من أكثر من 4000 مطار (تقارير الطقس للمطار METAR والتنبؤ بالطقس بالمطارTAF).

المحطات المتاحة هي النقط الصفراء والحمراء على الخريطة.

حرك المؤشر فوق النقطة لمعرفة اسم المحطة.

ثم انقر لمعرفة أرصاد وتوقعات الطقس.

لتغيير الخارطة: اضغط على الأزرار الخضراء مع رمز الصليب الأسود للتكبير. على الزر الأخضر مع شرطة للتصغير، أو على الأسهم الخضراء للخرائط المجاورة.


METAR-TAF: